sensor_id;sensor_type;location;lat;lon;timestamp;P1;durP1;ratioP1;P2;durP2;ratioP2
15022;SDS011;19850;49.576;10.880;2022-11-13T00:01:20;0.20;;;0.20;;
15022;SDS011;19850;49.576;10.880;2022-11-13T00:05:23;0.20;;;0.20;;
15022;SDS011;19850;49.576;10.880;2022-11-13T00:09:26;0.20;;;0.20;;
15022;SDS011;19850;49.576;10.880;2022-11-13T00:13:30;0.30;;;0.30;;
15022;SDS011;19850;49.576;10.880;2022-11-13T00:17:34;0.20;;;0.20;;
15022;SDS011;19850;49.576;10.880;2022-11-13T00:21:36;0.20;;;0.20;;
15022;SDS011;19850;49.576;10.880;2022-11-13T00:25:39;0.20;;;0.20;;
15022;SDS011;19850;49.576;10.880;2022-11-13T00:29:44;0.20;;;0.20;;
15022;SDS011;19850;49.576;10.880;2022-11-13T00:33:47;0.20;;;0.20;;
15022;SDS011;19850;49.576;10.880;2022-11-13T00:38:10;0.20;;;0.20;;
15022;SDS011;19850;49.576;10.880;2022-11-13T00:42:13;0.20;;;0.20;;
15022;SDS011;19850;49.576;10.880;2022-11-13T00:46:17;0.20;;;0.20;;
15022;SDS011;19850;49.576;10.880;2022-11-13T00:50:20;0.10;;;0.10;;
15022;SDS011;19850;49.576;10.880;2022-11-13T00:54:22;0.20;;;0.20;;
15022;SDS011;19850;49.576;10.880;2022-11-13T00:58:25;0.40;;;0.40;;
15022;SDS011;19850;49.576;10.880;2022-11-13T01:02:30;0.50;;;0.50;;
15022;SDS011;19850;49.576;10.880;2022-11-13T01:06:33;0.20;;;0.20;;
15022;SDS011;19850;49.576;10.880;2022-11-13T01:10:37;0.20;;;0.20;;
15022;SDS011;19850;49.576;10.880;2022-11-13T01:14:41;0.20;;;0.20;;
15022;SDS011;19850;49.576;10.880;2022-11-13T01:18:46;0.20;;;0.20;;
15022;SDS011;19850;49.576;10.880;2022-11-13T01:22:49;0.20;;;0.20;;
15022;SDS011;19850;49.576;10.880;2022-11-13T01:26:51;0.20;;;0.20;;
15022;SDS011;19850;49.576;10.880;2022-11-13T01:30:54;0.20;;;0.20;;
15022;SDS011;19850;49.576;10.880;2022-11-13T01:34:58;0.20;;;0.20;;
15022;SDS011;19850;49.576;10.880;2022-11-13T01:39:01;0.20;;;0.20;;
15022;SDS011;19850;49.576;10.880;2022-11-13T01:43:13;0.20;;;0.20;;
15022;SDS011;19850;49.576;10.880;2022-11-13T01:47:21;0.20;;;0.20;;
15022;SDS011;19850;49.576;10.880;2022-11-13T01:51:26;0.20;;;0.20;;
15022;SDS011;19850;49.576;10.880;2022-11-13T01:55:33;0.40;;;0.40;;
15022;SDS011;19850;49.576;10.880;2022-11-13T01:59:37;0.20;;;0.20;;
15022;SDS011;19850;49.576;10.880;2022-11-13T02:03:41;0.23;;;0.23;;
15022;SDS011;19850;49.576;10.880;2022-11-13T02:07:45;0.20;;;0.20;;
15022;SDS011;19850;49.576;10.880;2022-11-13T02:11:48;0.20;;;0.20;;
15022;SDS011;19850;49.576;10.880;2022-11-13T02:15:51;0.20;;;0.20;;
15022;SDS011;19850;49.576;10.880;2022-11-13T02:19:56;0.20;;;0.20;;
15022;SDS011;19850;49.576;10.880;2022-11-13T02:28:18;0.20;;;0.20;;
15022;SDS011;19850;49.576;10.880;2022-11-13T02:32:20;0.20;;;0.20;;
15022;SDS011;19850;49.576;10.880;2022-11-13T02:36:23;0.10;;;0.10;;
15022;SDS011;19850;49.576;10.880;2022-11-13T02:40:29;0.40;;;0.40;;
15022;SDS011;19850;49.576;10.880;2022-11-13T02:44:32;0.20;;;0.20;;
15022;SDS011;19850;49.576;10.880;2022-11-13T02:48:35;0.10;;;0.10;;
15022;SDS011;19850;49.576;10.880;2022-11-13T02:52:38;0.40;;;0.40;;
15022;SDS011;19850;49.576;10.880;2022-11-13T02:56:42;0.20;;;0.20;;
15022;SDS011;19850;49.576;10.880;2022-11-13T03:00:45;0.30;;;0.30;;
15022;SDS011;19850;49.576;10.880;2022-11-13T03:04:48;0.20;;;0.20;;
15022;SDS011;19850;49.576;10.880;2022-11-13T03:09:10;0.20;;;0.20;;
15022;SDS011;19850;49.576;10.880;2022-11-13T03:13:15;0.30;;;0.30;;
15022;SDS011;19850;49.576;10.880;2022-11-13T03:17:17;0.20;;;0.20;;
15022;SDS011;19850;49.576;10.880;2022-11-13T03:21:20;0.20;;;0.20;;
15022;SDS011;19850;49.576;10.880;2022-11-13T03:25:23;0.20;;;0.20;;
15022;SDS011;19850;49.576;10.880;2022-11-13T03:29:27;0.20;;;0.20;;
15022;SDS011;19850;49.576;10.880;2022-11-13T03:33:30;0.10;;;0.10;;
15022;SDS011;19850;49.576;10.880;2022-11-13T03:37:33;0.10;;;0.10;;
15022;SDS011;19850;49.576;10.880;2022-11-13T03:41:36;0.20;;;0.20;;
15022;SDS011;19850;49.576;10.880;2022-11-13T03:45:40;0.20;;;0.20;;
15022;SDS011;19850;49.576;10.880;2022-11-13T03:49:45;0.20;;;0.20;;
15022;SDS011;19850;49.576;10.880;2022-11-13T03:53:48;0.20;;;0.20;;
15022;SDS011;19850;49.576;10.880;2022-11-13T03:57:50;0.20;;;0.20;;
15022;SDS011;19850;49.576;10.880;2022-11-13T04:01:55;0.20;;;0.20;;
15022;SDS011;19850;49.576;10.880;2022-11-13T04:05:57;0.20;;;0.20;;
15022;SDS011;19850;49.576;10.880;2022-11-13T04:10:00;0.10;;;0.10;;
15022;SDS011;19850;49.576;10.880;2022-11-13T04:14:03;0.10;;;0.10;;
15022;SDS011;19850;49.576;10.880;2022-11-13T04:18:07;0.17;;;0.17;;
15022;SDS011;19850;49.576;10.880;2022-11-13T04:22:10;0.20;;;0.20;;
15022;SDS011;19850;49.576;10.880;2022-11-13T04:26:12;0.10;;;0.10;;
15022;SDS011;19850;49.576;10.880;2022-11-13T04:30:15;0.20;;;0.20;;
15022;SDS011;19850;49.576;10.880;2022-11-13T04:34:19;0.10;;;0.10;;
15022;SDS011;19850;49.576;10.880;2022-11-13T04:38:22;0.10;;;0.10;;
15022;SDS011;19850;49.576;10.880;2022-11-13T04:42:25;0.10;;;0.10;;
15022;SDS011;19850;49.576;10.880;2022-11-13T04:46:45;0.10;;;0.10;;
15022;SDS011;19850;49.576;10.880;2022-11-13T04:50:49;0.20;;;0.20;;
15022;SDS011;19850;49.576;10.880;2022-11-13T04:54:52;0.10;;;0.10;;
15022;SDS011;19850;49.576;10.880;2022-11-13T04:58:56;0.10;;;0.10;;
15022;SDS011;19850;49.576;10.880;2022-11-13T05:02:59;0.20;;;0.20;;
15022;SDS011;19850;49.576;10.880;2022-11-13T05:07:03;0.20;;;0.20;;
15022;SDS011;19850;49.576;10.880;2022-11-13T05:11:06;0.20;;;0.20;;
15022;SDS011;19850;49.576;10.880;2022-11-13T05:15:08;0.20;;;0.20;;
15022;SDS011;19850;49.576;10.880;2022-11-13T05:19:11;0.10;;;0.10;;
15022;SDS011;19850;49.576;10.880;2022-11-13T05:23:15;0.10;;;0.10;;
15022;SDS011;19850;49.576;10.880;2022-11-13T05:27:18;0.20;;;0.20;;
15022;SDS011;19850;49.576;10.880;2022-11-13T05:31:21;0.20;;;0.20;;
15022;SDS011;19850;49.576;10.880;2022-11-13T05:35:24;0.20;;;0.20;;
15022;SDS011;19850;49.576;10.880;2022-11-13T05:39:28;0.17;;;0.17;;
15022;SDS011;19850;49.576;10.880;2022-11-13T05:43:31;0.13;;;0.13;;
15022;SDS011;19850;49.576;10.880;2022-11-13T05:47:34;0.20;;;0.20;;
15022;SDS011;19850;49.576;10.880;2022-11-13T05:51:36;0.10;;;0.10;;
15022;SDS011;19850;49.576;10.880;2022-11-13T05:55:40;0.10;;;0.10;;
15022;SDS011;19850;49.576;10.880;2022-11-13T05:59:43;0.10;;;0.10;;
15022;SDS011;19850;49.576;10.880;2022-11-13T06:03:46;0.10;;;0.10;;
15022;SDS011;19850;49.576;10.880;2022-11-13T06:07:49;0.10;;;0.10;;
15022;SDS011;19850;49.576;10.880;2022-11-13T06:11:53;0.10;;;0.10;;
15022;SDS011;19850;49.576;10.880;2022-11-13T06:15:59;0.10;;;0.10;;
15022;SDS011;19850;49.576;10.880;2022-11-13T06:20:02;0.20;;;0.20;;
15022;SDS011;19850;49.576;10.880;2022-11-13T06:24:05;0.10;;;0.10;;
15022;SDS011;19850;49.576;10.880;2022-11-13T06:28:10;0.10;;;0.10;;
15022;SDS011;19850;49.576;10.880;2022-11-13T06:32:13;0.10;;;0.10;;
15022;SDS011;19850;49.576;10.880;2022-11-13T06:36:17;0.20;;;0.20;;
15022;SDS011;19850;49.576;10.880;2022-11-13T06:40:20;0.10;;;0.10;;
15022;SDS011;19850;49.576;10.880;2022-11-13T06:44:24;0.20;;;0.20;;
15022;SDS011;19850;49.576;10.880;2022-11-13T06:48:27;0.10;;;0.10;;
15022;SDS011;19850;49.576;10.880;2022-11-13T06:52:31;0.10;;;0.10;;
15022;SDS011;19850;49.576;10.880;2022-11-13T06:56:33;0.10;;;0.10;;
15022;SDS011;19850;49.576;10.880;2022-11-13T07:00:37;0.10;;;0.10;;
15022;SDS011;19850;49.576;10.880;2022-11-13T07:04:41;0.10;;;0.10;;
15022;SDS011;19850;49.576;10.880;2022-11-13T07:08:44;0.10;;;0.10;;
15022;SDS011;19850;49.576;10.880;2022-11-13T07:12:47;0.10;;;0.10;;
15022;SDS011;19850;49.576;10.880;2022-11-13T07:16:56;0.10;;;0.10;;
15022;SDS011;19850;49.576;10.880;2022-11-13T07:21:11;0.10;;;0.10;;
15022;SDS011;19850;49.576;10.880;2022-11-13T07:25:14;0.10;;;0.10;;
15022;SDS011;19850;49.576;10.880;2022-11-13T07:29:16;0.20;;;0.20;;
15022;SDS011;19850;49.576;10.880;2022-11-13T07:33:21;0.10;;;0.10;;
15022;SDS011;19850;49.576;10.880;2022-11-13T07:37:24;0.10;;;0.10;;
15022;SDS011;19850;49.576;10.880;2022-11-13T07:41:28;0.20;;;0.20;;
15022;SDS011;19850;49.576;10.880;2022-11-13T07:45:31;0.20;;;0.20;;
15022;SDS011;19850;49.576;10.880;2022-11-13T07:49:35;0.20;;;0.20;;
15022;SDS011;19850;49.576;10.880;2022-11-13T07:53:38;0.10;;;0.10;;
15022;SDS011;19850;49.576;10.880;2022-11-13T07:57:41;0.10;;;0.10;;
15022;SDS011;19850;49.576;10.880;2022-11-13T08:01:44;0.10;;;0.10;;
15022;SDS011;19850;49.576;10.880;2022-11-13T08:05:48;0.10;;;0.10;;
15022;SDS011;19850;49.576;10.880;2022-11-13T08:09:51;0.10;;;0.10;;
15022;SDS011;19850;49.576;10.880;2022-11-13T08:13:53;0.10;;;0.10;;
15022;SDS011;19850;49.576;10.880;2022-11-13T08:17:57;0.10;;;0.10;;
15022;SDS011;19850;49.576;10.880;2022-11-13T08:22:02;0.10;;;0.10;;
15022;SDS011;19850;49.576;10.880;2022-11-13T08:26:05;0.10;;;0.10;;
15022;SDS011;19850;49.576;10.880;2022-11-13T08:30:09;0.10;;;0.10;;
15022;SDS011;19850;49.576;10.880;2022-11-13T08:34:12;0.10;;;0.10;;
15022;SDS011;19850;49.576;10.880;2022-11-13T08:38:16;0.10;;;0.10;;
15022;SDS011;19850;49.576;10.880;2022-11-13T08:42:19;0.10;;;0.10;;
15022;SDS011;19850;49.576;10.880;2022-11-13T08:46:22;0.10;;;0.10;;
15022;SDS011;19850;49.576;10.880;2022-11-13T08:50:25;0.10;;;0.10;;
15022;SDS011;19850;49.576;10.880;2022-11-13T08:54:30;0.10;;;0.10;;
15022;SDS011;19850;49.576;10.880;2022-11-13T08:58:33;0.10;;;0.10;;
15022;SDS011;19850;49.576;10.880;2022-11-13T09:02:36;0.10;;;0.10;;
15022;SDS011;19850;49.576;10.880;2022-11-13T09:06:38;0.10;;;0.10;;
15022;SDS011;19850;49.576;10.880;2022-11-13T09:10:42;0.10;;;0.10;;
15022;SDS011;19850;49.576;10.880;2022-11-13T09:14:45;0.10;;;0.10;;
15022;SDS011;19850;49.576;10.880;2022-11-13T09:18:48;0.10;;;0.10;;
15022;SDS011;19850;49.576;10.880;2022-11-13T09:22:57;0.10;;;0.10;;
15022;SDS011;19850;49.576;10.880;2022-11-13T09:27:02;0.10;;;0.10;;
15022;SDS011;19850;49.576;10.880;2022-11-13T09:31:05;0.10;;;0.10;;
15022;SDS011;19850;49.576;10.880;2022-11-13T09:35:08;0.10;;;0.10;;
15022;SDS011;19850;49.576;10.880;2022-11-13T09:39:11;0.10;;;0.10;;
15022;SDS011;19850;49.576;10.880;2022-11-13T09:43:22;0.10;;;0.10;;
15022;SDS011;19850;49.576;10.880;2022-11-13T09:47:29;0.10;;;0.10;;
15022;SDS011;19850;49.576;10.880;2022-11-13T09:51:35;0.10;;;0.10;;
15022;SDS011;19850;49.576;10.880;2022-11-13T09:55:39;0.03;;;0.03;;
15022;SDS011;19850;49.576;10.880;2022-11-13T10:00:00;0.10;;;0.10;;
15022;SDS011;19850;49.576;10.880;2022-11-13T10:04:06;0.10;;;0.10;;
15022;SDS011;19850;49.576;10.880;2022-11-13T10:08:15;0.10;;;0.10;;
15022;SDS011;19850;49.576;10.880;2022-11-13T10:12:20;0.10;;;0.10;;
15022;SDS011;19850;49.576;10.880;2022-11-13T10:16:27;0.10;;;0.10;;
15022;SDS011;19850;49.576;10.880;2022-11-13T10:20:34;0.10;;;0.10;;
15022;SDS011;19850;49.576;10.880;2022-11-13T10:24:40;0.03;;;0.03;;
15022;SDS011;19850;49.576;10.880;2022-11-13T10:28:45;0.10;;;0.10;;
15022;SDS011;19850;49.576;10.880;2022-11-13T10:32:53;0.00;;;0.00;;
15022;SDS011;19850;49.576;10.880;2022-11-13T10:37:08;0.10;;;0.10;;
15022;SDS011;19850;49.576;10.880;2022-11-13T10:41:18;0.10;;;0.10;;
15022;SDS011;19850;49.576;10.880;2022-11-13T10:45:22;0.00;;;0.00;;
15022;SDS011;19850;49.576;10.880;2022-11-13T10:49:26;0.10;;;0.10;;
15022;SDS011;19850;49.576;10.880;2022-11-13T10:53:35;0.00;;;0.00;;
15022;SDS011;19850;49.576;10.880;2022-11-13T10:57:39;0.00;;;0.00;;
15022;SDS011;19850;49.576;10.880;2022-11-13T11:01:47;0.10;;;0.10;;
15022;SDS011;19850;49.576;10.880;2022-11-13T11:05:55;0.07;;;0.07;;
15022;SDS011;19850;49.576;10.880;2022-11-13T11:09:58;0.00;;;0.00;;
15022;SDS011;19850;49.576;10.880;2022-11-13T11:14:09;0.00;;;0.00;;
15022;SDS011;19850;49.576;10.880;2022-11-13T11:18:21;0.10;;;0.10;;
15022;SDS011;19850;49.576;10.880;2022-11-13T11:22:29;0.03;;;0.03;;
15022;SDS011;19850;49.576;10.880;2022-11-13T11:26:35;0.00;;;0.00;;
15022;SDS011;19850;49.576;10.880;2022-11-13T11:30:43;0.10;;;0.10;;
15022;SDS011;19850;49.576;10.880;2022-11-13T11:34:49;0.03;;;0.03;;
15022;SDS011;19850;49.576;10.880;2022-11-13T11:39:04;0.10;;;0.10;;
15022;SDS011;19850;49.576;10.880;2022-11-13T11:43:11;0.00;;;0.00;;
15022;SDS011;19850;49.576;10.880;2022-11-13T11:47:17;0.00;;;0.00;;
15022;SDS011;19850;49.576;10.880;2022-11-13T11:51:20;0.00;;;0.00;;
15022;SDS011;19850;49.576;10.880;2022-11-13T11:55:37;0.10;;;0.10;;
15022;SDS011;19850;49.576;10.880;2022-11-13T12:00:02;0.00;;;0.00;;
15022;SDS011;19850;49.576;10.880;2022-11-13T12:04:11;0.00;;;0.00;;
15022;SDS011;19850;49.576;10.880;2022-11-13T12:08:21;0.00;;;0.00;;
15022;SDS011;19850;49.576;10.880;2022-11-13T12:12:37;0.00;;;0.00;;
15022;SDS011;19850;49.576;10.880;2022-11-13T12:16:48;0.00;;;0.00;;
15022;SDS011;19850;49.576;10.880;2022-11-13T12:20:58;0.10;;;0.10;;
15022;SDS011;19850;49.576;10.880;2022-11-13T12:25:11;0.00;;;0.00;;
15022;SDS011;19850;49.576;10.880;2022-11-13T12:29:25;0.00;;;0.00;;
15022;SDS011;19850;49.576;10.880;2022-11-13T12:33:36;0.00;;;0.00;;
15022;SDS011;19850;49.576;10.880;2022-11-13T12:37:46;0.00;;;0.00;;
15022;SDS011;19850;49.576;10.880;2022-11-13T12:41:54;0.00;;;0.00;;
15022;SDS011;19850;49.576;10.880;2022-11-13T12:46:04;0.00;;;0.00;;
15022;SDS011;19850;49.576;10.880;2022-11-13T12:50:19;0.00;;;0.00;;
15022;SDS011;19850;49.576;10.880;2022-11-13T12:54:32;0.00;;;0.00;;
15022;SDS011;19850;49.576;10.880;2022-11-13T12:58:36;0.00;;;0.00;;
15022;SDS011;19850;49.576;10.880;2022-11-13T13:02:51;0.00;;;0.00;;
15022;SDS011;19850;49.576;10.880;2022-11-13T13:07:00;0.00;;;0.00;;
15022;SDS011;19850;49.576;10.880;2022-11-13T13:11:12;0.00;;;0.00;;
15022;SDS011;19850;49.576;10.880;2022-11-13T13:15:24;0.10;;;0.10;;
15022;SDS011;19850;49.576;10.880;2022-11-13T13:19:33;0.10;;;0.10;;
15022;SDS011;19850;49.576;10.880;2022-11-13T13:23:36;0.00;;;0.00;;
15022;SDS011;19850;49.576;10.880;2022-11-13T13:27:40;0.00;;;0.00;;
15022;SDS011;19850;49.576;10.880;2022-11-13T13:31:47;0.00;;;0.00;;
15022;SDS011;19850;49.576;10.880;2022-11-13T13:35:56;0.10;;;0.10;;
15022;SDS011;19850;49.576;10.880;2022-11-13T13:40:11;0.00;;;0.00;;
15022;SDS011;19850;49.576;10.880;2022-11-13T13:44:38;0.00;;;0.00;;
15022;SDS011;19850;49.576;10.880;2022-11-13T13:48:48;0.00;;;0.00;;
15022;SDS011;19850;49.576;10.880;2022-11-13T13:52:54;0.00;;;0.00;;
15022;SDS011;19850;49.576;10.880;2022-11-13T13:56:58;0.07;;;0.07;;
15022;SDS011;19850;49.576;10.880;2022-11-13T14:01:01;0.00;;;0.00;;
15022;SDS011;19850;49.576;10.880;2022-11-13T14:05:24;0.00;;;0.00;;
15022;SDS011;19850;49.576;10.880;2022-11-13T14:09:30;0.00;;;0.00;;
15022;SDS011;19850;49.576;10.880;2022-11-13T14:13:33;0.00;;;0.00;;
15022;SDS011;19850;49.576;10.880;2022-11-13T14:17:37;0.00;;;0.00;;
15022;SDS011;19850;49.576;10.880;2022-11-13T14:21:41;0.00;;;0.00;;
15022;SDS011;19850;49.576;10.880;2022-11-13T14:25:46;0.00;;;0.00;;
15022;SDS011;19850;49.576;10.880;2022-11-13T14:29:49;0.00;;;0.00;;
15022;SDS011;19850;49.576;10.880;2022-11-13T14:33:53;0.00;;;0.00;;
15022;SDS011;19850;49.576;10.880;2022-11-13T14:37:56;0.00;;;0.00;;
15022;SDS011;19850;49.576;10.880;2022-11-13T14:42:00;0.00;;;0.00;;
15022;SDS011;19850;49.576;10.880;2022-11-13T14:46:03;0.03;;;0.03;;
15022;SDS011;19850;49.576;10.880;2022-11-13T14:50:08;0.10;;;0.10;;
15022;SDS011;19850;49.576;10.880;2022-11-13T14:54:31;0.00;;;0.00;;
15022;SDS011;19850;49.576;10.880;2022-11-13T14:58:56;0.00;;;0.00;;
15022;SDS011;19850;49.576;10.880;2022-11-13T15:03:08;0.00;;;0.00;;
15022;SDS011;19850;49.576;10.880;2022-11-13T15:07:18;0.00;;;0.00;;
15022;SDS011;19850;49.576;10.880;2022-11-13T15:11:28;0.00;;;0.00;;
15022;SDS011;19850;49.576;10.880;2022-11-13T15:15:33;0.00;;;0.00;;
15022;SDS011;19850;49.576;10.880;2022-11-13T15:19:36;0.00;;;0.00;;
15022;SDS011;19850;49.576;10.880;2022-11-13T15:23:39;0.10;;;0.10;;
15022;SDS011;19850;49.576;10.880;2022-11-13T15:27:42;0.10;;;0.10;;
15022;SDS011;19850;49.576;10.880;2022-11-13T15:31:46;0.00;;;0.00;;
15022;SDS011;19850;49.576;10.880;2022-11-13T15:35:49;0.10;;;0.10;;
15022;SDS011;19850;49.576;10.880;2022-11-13T15:39:52;0.10;;;0.10;;
15022;SDS011;19850;49.576;10.880;2022-11-13T15:43:55;0.10;;;0.10;;
15022;SDS011;19850;49.576;10.880;2022-11-13T15:47:59;0.10;;;0.10;;
15022;SDS011;19850;49.576;10.880;2022-11-13T15:52:02;0.00;;;0.00;;
15022;SDS011;19850;49.576;10.880;2022-11-13T15:56:06;0.00;;;0.00;;
15022;SDS011;19850;49.576;10.880;2022-11-13T16:00:11;0.10;;;0.10;;
15022;SDS011;19850;49.576;10.880;2022-11-13T16:04:16;0.00;;;0.00;;
15022;SDS011;19850;49.576;10.880;2022-11-13T16:08:19;0.10;;;0.10;;
15022;SDS011;19850;49.576;10.880;2022-11-13T16:12:22;0.00;;;0.00;;
15022;SDS011;19850;49.576;10.880;2022-11-13T16:16:25;0.00;;;0.00;;
15022;SDS011;19850;49.576;10.880;2022-11-13T16:20:30;0.10;;;0.10;;
15022;SDS011;19850;49.576;10.880;2022-11-13T16:24:33;0.00;;;0.00;;
15022;SDS011;19850;49.576;10.880;2022-11-13T16:28:36;0.10;;;0.10;;
15022;SDS011;19850;49.576;10.880;2022-11-13T16:32:59;0.10;;;0.10;;
15022;SDS011;19850;49.576;10.880;2022-11-13T16:37:09;0.10;;;0.10;;
15022;SDS011;19850;49.576;10.880;2022-11-13T16:41:15;0.10;;;0.10;;
15022;SDS011;19850;49.576;10.880;2022-11-13T16:45:18;0.10;;;0.10;;
15022;SDS011;19850;49.576;10.880;2022-11-13T16:49:21;0.10;;;0.10;;
15022;SDS011;19850;49.576;10.880;2022-11-13T16:53:25;0.10;;;0.10;;
15022;SDS011;19850;49.576;10.880;2022-11-13T16:57:29;0.10;;;0.10;;
15022;SDS011;19850;49.576;10.880;2022-11-13T17:01:31;0.10;;;0.10;;
15022;SDS011;19850;49.576;10.880;2022-11-13T17:05:35;0.10;;;0.10;;
15022;SDS011;19850;49.576;10.880;2022-11-13T17:09:39;0.10;;;0.10;;
15022;SDS011;19850;49.576;10.880;2022-11-13T17:13:42;0.10;;;0.10;;
15022;SDS011;19850;49.576;10.880;2022-11-13T17:17:46;0.10;;;0.10;;
15022;SDS011;19850;49.576;10.880;2022-11-13T17:21:48;0.10;;;0.10;;
15022;SDS011;19850;49.576;10.880;2022-11-13T17:25:53;0.10;;;0.10;;
15022;SDS011;19850;49.576;10.880;2022-11-13T17:29:56;0.10;;;0.10;;
15022;SDS011;19850;49.576;10.880;2022-11-13T17:33:59;0.10;;;0.10;;
15022;SDS011;19850;49.576;10.880;2022-11-13T17:38:02;0.10;;;0.10;;
15022;SDS011;19850;49.576;10.880;2022-11-13T17:42:06;0.10;;;0.10;;
15022;SDS011;19850;49.576;10.880;2022-11-13T17:46:10;0.10;;;0.10;;
15022;SDS011;19850;49.576;10.880;2022-11-13T17:50:14;0.10;;;0.10;;
15022;SDS011;19850;49.576;10.880;2022-11-13T17:54:17;0.10;;;0.10;;
15022;SDS011;19850;49.576;10.880;2022-11-13T17:58:21;0.10;;;0.10;;
15022;SDS011;19850;49.576;10.880;2022-11-13T18:02:24;0.10;;;0.10;;
15022;SDS011;19850;49.576;10.880;2022-11-13T18:06:52;0.10;;;0.10;;
15022;SDS011;19850;49.576;10.880;2022-11-13T18:11:22;0.10;;;0.10;;
15022;SDS011;19850;49.576;10.880;2022-11-13T18:15:27;0.10;;;0.10;;
15022;SDS011;19850;49.576;10.880;2022-11-13T18:19:30;0.10;;;0.10;;
15022;SDS011;19850;49.576;10.880;2022-11-13T18:23:33;0.10;;;0.10;;
15022;SDS011;19850;49.576;10.880;2022-11-13T18:27:36;0.10;;;0.10;;
15022;SDS011;19850;49.576;10.880;2022-11-13T18:31:41;0.10;;;0.10;;
15022;SDS011;19850;49.576;10.880;2022-11-13T18:35:44;0.10;;;0.10;;
15022;SDS011;19850;49.576;10.880;2022-11-13T18:39:47;0.10;;;0.10;;
15022;SDS011;19850;49.576;10.880;2022-11-13T18:43:50;0.10;;;0.10;;
15022;SDS011;19850;49.576;10.880;2022-11-13T18:47:54;0.10;;;0.10;;
15022;SDS011;19850;49.576;10.880;2022-11-13T18:51:57;0.10;;;0.10;;
15022;SDS011;19850;49.576;10.880;2022-11-13T18:56:01;0.10;;;0.10;;
15022;SDS011;19850;49.576;10.880;2022-11-13T19:00:05;0.10;;;0.10;;
15022;SDS011;19850;49.576;10.880;2022-11-13T19:04:10;0.10;;;0.10;;
15022;SDS011;19850;49.576;10.880;2022-11-13T19:08:24;0.10;;;0.10;;
15022;SDS011;19850;49.576;10.880;2022-11-13T19:12:28;0.10;;;0.10;;
15022;SDS011;19850;49.576;10.880;2022-11-13T19:16:31;0.10;;;0.10;;
15022;SDS011;19850;49.576;10.880;2022-11-13T19:20:37;0.10;;;0.10;;
15022;SDS011;19850;49.576;10.880;2022-11-13T19:24:40;0.10;;;0.10;;
15022;SDS011;19850;49.576;10.880;2022-11-13T19:28:44;0.10;;;0.10;;
15022;SDS011;19850;49.576;10.880;2022-11-13T19:32:48;0.10;;;0.10;;
15022;SDS011;19850;49.576;10.880;2022-11-13T19:36:52;0.10;;;0.10;;
15022;SDS011;19850;49.576;10.880;2022-11-13T19:40:55;0.10;;;0.10;;
15022;SDS011;19850;49.576;10.880;2022-11-13T19:44:57;0.10;;;0.10;;
15022;SDS011;19850;49.576;10.880;2022-11-13T19:49:00;0.10;;;0.10;;
15022;SDS011;19850;49.576;10.880;2022-11-13T19:53:04;0.10;;;0.10;;
15022;SDS011;19850;49.576;10.880;2022-11-13T19:57:07;0.10;;;0.10;;
15022;SDS011;19850;49.576;10.880;2022-11-13T20:01:10;0.10;;;0.10;;
15022;SDS011;19850;49.576;10.880;2022-11-13T20:05:14;0.10;;;0.10;;
15022;SDS011;19850;49.576;10.880;2022-11-13T20:09:19;0.10;;;0.10;;
15022;SDS011;19850;49.576;10.880;2022-11-13T20:13:21;0.10;;;0.10;;
15022;SDS011;19850;49.576;10.880;2022-11-13T20:17:24;0.10;;;0.10;;
15022;SDS011;19850;49.576;10.880;2022-11-13T20:21:27;0.10;;;0.10;;
15022;SDS011;19850;49.576;10.880;2022-11-13T20:25:33;0.10;;;0.10;;
15022;SDS011;19850;49.576;10.880;2022-11-13T20:29:35;0.10;;;0.10;;
15022;SDS011;19850;49.576;10.880;2022-11-13T20:33:39;0.10;;;0.10;;
15022;SDS011;19850;49.576;10.880;2022-11-13T20:37:41;0.10;;;0.10;;
15022;SDS011;19850;49.576;10.880;2022-11-13T20:41:46;0.10;;;0.10;;
15022;SDS011;19850;49.576;10.880;2022-11-13T20:45:49;0.10;;;0.10;;
15022;SDS011;19850;49.576;10.880;2022-11-13T20:49:51;0.10;;;0.10;;
15022;SDS011;19850;49.576;10.880;2022-11-13T20:53:55;0.10;;;0.10;;
15022;SDS011;19850;49.576;10.880;2022-11-13T20:57:59;0.10;;;0.10;;
15022;SDS011;19850;49.576;10.880;2022-11-13T21:02:02;0.10;;;0.10;;
15022;SDS011;19850;49.576;10.880;2022-11-13T21:06:05;0.10;;;0.10;;
15022;SDS011;19850;49.576;10.880;2022-11-13T21:10:09;0.10;;;0.10;;
15022;SDS011;19850;49.576;10.880;2022-11-13T21:14:13;0.10;;;0.10;;
15022;SDS011;19850;49.576;10.880;2022-11-13T21:18:15;0.10;;;0.10;;
15022;SDS011;19850;49.576;10.880;2022-11-13T21:22:18;0.10;;;0.10;;
15022;SDS011;19850;49.576;10.880;2022-11-13T21:26:21;0.10;;;0.10;;
15022;SDS011;19850;49.576;10.880;2022-11-13T21:30:26;0.10;;;0.10;;
15022;SDS011;19850;49.576;10.880;2022-11-13T21:34:29;0.10;;;0.10;;
15022;SDS011;19850;49.576;10.880;2022-11-13T21:38:31;0.10;;;0.10;;
15022;SDS011;19850;49.576;10.880;2022-11-13T21:42:35;0.10;;;0.10;;
15022;SDS011;19850;49.576;10.880;2022-11-13T21:46:39;0.10;;;0.10;;
15022;SDS011;19850;49.576;10.880;2022-11-13T21:50:43;0.10;;;0.10;;
15022;SDS011;19850;49.576;10.880;2022-11-13T21:54:45;0.10;;;0.10;;
15022;SDS011;19850;49.576;10.880;2022-11-13T21:58:48;0.10;;;0.10;;
15022;SDS011;19850;49.576;10.880;2022-11-13T22:02:53;0.10;;;0.10;;
15022;SDS011;19850;49.576;10.880;2022-11-13T22:06:56;0.10;;;0.10;;
15022;SDS011;19850;49.576;10.880;2022-11-13T22:10:59;0.10;;;0.10;;
15022;SDS011;19850;49.576;10.880;2022-11-13T22:15:01;0.10;;;0.10;;
15022;SDS011;19850;49.576;10.880;2022-11-13T22:19:08;0.10;;;0.10;;
15022;SDS011;19850;49.576;10.880;2022-11-13T22:23:11;0.10;;;0.10;;
15022;SDS011;19850;49.576;10.880;2022-11-13T22:27:14;0.10;;;0.10;;
15022;SDS011;19850;49.576;10.880;2022-11-13T22:31:19;0.10;;;0.10;;
15022;SDS011;19850;49.576;10.880;2022-11-13T22:35:23;0.10;;;0.10;;
15022;SDS011;19850;49.576;10.880;2022-11-13T22:39:26;0.10;;;0.10;;
15022;SDS011;19850;49.576;10.880;2022-11-13T22:43:33;0.10;;;0.10;;
15022;SDS011;19850;49.576;10.880;2022-11-13T22:47:37;0.10;;;0.10;;
15022;SDS011;19850;49.576;10.880;2022-11-13T22:51:42;0.10;;;0.10;;
15022;SDS011;19850;49.576;10.880;2022-11-13T22:55:44;0.10;;;0.10;;
15022;SDS011;19850;49.576;10.880;2022-11-13T22:59:47;0.10;;;0.10;;
15022;SDS011;19850;49.576;10.880;2022-11-13T23:03:50;0.10;;;0.10;;
15022;SDS011;19850;49.576;10.880;2022-11-13T23:07:55;0.10;;;0.10;;
15022;SDS011;19850;49.576;10.880;2022-11-13T23:11:58;0.10;;;0.10;;
15022;SDS011;19850;49.576;10.880;2022-11-13T23:16:01;0.10;;;0.10;;
15022;SDS011;19850;49.576;10.880;2022-11-13T23:20:04;0.10;;;0.10;;
15022;SDS011;19850;49.576;10.880;2022-11-13T23:24:10;0.10;;;0.10;;
15022;SDS011;19850;49.576;10.880;2022-11-13T23:28:13;0.10;;;0.10;;
15022;SDS011;19850;49.576;10.880;2022-11-13T23:32:15;0.10;;;0.10;;
15022;SDS011;19850;49.576;10.880;2022-11-13T23:36:18;0.10;;;0.10;;
15022;SDS011;19850;49.576;10.880;2022-11-13T23:40:22;0.10;;;0.10;;
15022;SDS011;19850;49.576;10.880;2022-11-13T23:44:25;0.10;;;0.10;;
15022;SDS011;19850;49.576;10.880;2022-11-13T23:48:27;0.10;;;0.10;;
15022;SDS011;19850;49.576;10.880;2022-11-13T23:52:31;0.10;;;0.10;;
15022;SDS011;19850;49.576;10.880;2022-11-13T23:56:35;0.10;;;0.10;;
